sensor_id;sensor_type;location;lat;lon;timestamp;temperature;humidity
14409;DHT22;7289;50.706;4.992;2023-09-30T00:00:45;12.40;99.90
14409;DHT22;7289;50.706;4.992;2023-09-30T00:03:13;12.40;99.90
14409;DHT22;7289;50.706;4.992;2023-09-30T00:05:42;12.40;99.90
14409;DHT22;7289;50.706;4.992;2023-09-30T00:08:22;12.50;99.90
14409;DHT22;7289;50.706;4.992;2023-09-30T00:11:09;12.40;99.90
14409;DHT22;7289;50.706;4.992;2023-09-30T00:14:01;12.50;99.90
14409;DHT22;7289;50.706;4.992;2023-09-30T00:16:30;12.50;99.90
14409;DHT22;7289;50.706;4.992;2023-09-30T00:19:11;12.40;99.90
14409;DHT22;7289;50.706;4.992;2023-09-30T00:22:06;12.50;99.90
14409;DHT22;7289;50.706;4.992;2023-09-30T00:24:46;12.50;99.90
14409;DHT22;7289;50.706;4.992;2023-09-30T00:31:08;12.40;99.90
14409;DHT22;7289;50.706;4.992;2023-09-30T00:33:37;12.30;99.90
14409;DHT22;7289;50.706;4.992;2023-09-30T00:36:07;12.30;99.90
14409;DHT22;7289;50.706;4.992;2023-09-30T00:38:44;12.30;99.90
14409;DHT22;7289;50.706;4.992;2023-09-30T00:41:13;12.30;99.90
14409;DHT22;7289;50.706;4.992;2023-09-30T00:43:41;12.20;99.90
14409;DHT22;7289;50.706;4.992;2023-09-30T00:46:42;12.20;99.90
14409;DHT22;7289;50.706;4.992;2023-09-30T00:49:23;12.20;99.90
14409;DHT22;7289;50.706;4.992;2023-09-30T00:51:55;12.20;99.90
14409;DHT22;7289;50.706;4.992;2023-09-30T00:54:46;12.30;99.90
14409;DHT22;7289;50.706;4.992;2023-09-30T01:01:59;12.10;99.90
14409;DHT22;7289;50.706;4.992;2023-09-30T01:05:06;12.00;99.90
14409;DHT22;7289;50.706;4.992;2023-09-30T01:07:35;12.00;99.90
14409;DHT22;7289;50.706;4.992;2023-09-30T01:10:04;12.10;99.90
14409;DHT22;7289;50.706;4.992;2023-09-30T01:12:33;12.10;99.90
14409;DHT22;7289;50.706;4.992;2023-09-30T01:15:09;12.10;99.90
14409;DHT22;7289;50.706;4.992;2023-09-30T01:18:04;12.20;99.90
14409;DHT22;7289;50.706;4.992;2023-09-30T01:21:05;12.30;99.90
14409;DHT22;7289;50.706;4.992;2023-09-30T01:23:36;12.30;99.90
14409;DHT22;7289;50.706;4.992;2023-09-30T01:26:06;12.40;99.90
14409;DHT22;7289;50.706;4.992;2023-09-30T01:28:36;12.40;99.90
14409;DHT22;7289;50.706;4.992;2023-09-30T01:31:04;12.40;99.90
14409;DHT22;7289;50.706;4.992;2023-09-30T01:33:35;12.40;99.90
14409;DHT22;7289;50.706;4.992;2023-09-30T01:36:03;12.50;99.90
14409;DHT22;7289;50.706;4.992;2023-09-30T01:38:32;12.50;99.90
14409;DHT22;7289;50.706;4.992;2023-09-30T01:41:02;12.60;99.90
14409;DHT22;7289;50.706;4.992;2023-09-30T01:43:32;12.60;99.90
14409;DHT22;7289;50.706;4.992;2023-09-30T01:46:02;12.60;99.90
14409;DHT22;7289;50.706;4.992;2023-09-30T01:48:31;12.60;99.90
14409;DHT22;7289;50.706;4.992;2023-09-30T01:51:32;12.60;99.90
14409;DHT22;7289;50.706;4.992;2023-09-30T01:54:06;12.60;99.90
14409;DHT22;7289;50.706;4.992;2023-09-30T01:56:49;12.50;99.90
14409;DHT22;7289;50.706;4.992;2023-09-30T01:59:18;12.60;99.90
14409;DHT22;7289;50.706;4.992;2023-09-30T02:01:48;12.50;99.90
14409;DHT22;7289;50.706;4.992;2023-09-30T02:04:23;12.50;99.90
14409;DHT22;7289;50.706;4.992;2023-09-30T02:07:22;12.40;99.90
14409;DHT22;7289;50.706;4.992;2023-09-30T02:10:02;12.40;99.90
14409;DHT22;7289;50.706;4.992;2023-09-30T02:12:34;12.40;99.90
14409;DHT22;7289;50.706;4.992;2023-09-30T02:15:05;12.30;99.90
14409;DHT22;7289;50.706;4.992;2023-09-30T02:17:34;12.40;99.90
14409;DHT22;7289;50.706;4.992;2023-09-30T02:20:04;12.40;99.90
14409;DHT22;7289;50.706;4.992;2023-09-30T02:23:23;12.40;99.90
14409;DHT22;7289;50.706;4.992;2023-09-30T02:27:06;12.40;99.90
14409;DHT22;7289;50.706;4.992;2023-09-30T02:30:25;12.30;99.90
14409;DHT22;7289;50.706;4.992;2023-09-30T02:34:08;12.30;99.90
14409;DHT22;7289;50.706;4.992;2023-09-30T02:37:26;12.40;99.90
14409;DHT22;7289;50.706;4.992;2023-09-30T02:40:10;12.30;99.90
14409;DHT22;7289;50.706;4.992;2023-09-30T02:42:43;12.20;99.90
14409;DHT22;7289;50.706;4.992;2023-09-30T02:45:12;12.20;99.90
14409;DHT22;7289;50.706;4.992;2023-09-30T02:47:53;12.10;99.90
14409;DHT22;7289;50.706;4.992;2023-09-30T02:50:21;12.10;99.90
14409;DHT22;7289;50.706;4.992;2023-09-30T02:53:03;12.00;99.90
14409;DHT22;7289;50.706;4.992;2023-09-30T02:55:32;12.00;99.90
14409;DHT22;7289;50.706;4.992;2023-09-30T02:58:50;12.00;99.90
14409;DHT22;7289;50.706;4.992;2023-09-30T03:01:19;11.90;99.90
14409;DHT22;7289;50.706;4.992;2023-09-30T03:03:50;11.90;99.90
14409;DHT22;7289;50.706;4.992;2023-09-30T03:06:18;11.90;99.90
14409;DHT22;7289;50.706;4.992;2023-09-30T03:08:47;11.80;99.90
14409;DHT22;7289;50.706;4.992;2023-09-30T03:11:26;11.90;99.90
14409;DHT22;7289;50.706;4.992;2023-09-30T03:13:54;11.80;99.90
14409;DHT22;7289;50.706;4.992;2023-09-30T03:16:23;11.80;99.90
14409;DHT22;7289;50.706;4.992;2023-09-30T03:18:53;11.80;99.90
14409;DHT22;7289;50.706;4.992;2023-09-30T03:21:23;11.80;99.90
14409;DHT22;7289;50.706;4.992;2023-09-30T03:23:51;11.80;99.90
14409;DHT22;7289;50.706;4.992;2023-09-30T03:26:20;11.80;99.90
14409;DHT22;7289;50.706;4.992;2023-09-30T03:28:49;11.80;99.90
14409;DHT22;7289;50.706;4.992;2023-09-30T03:31:19;11.80;99.90
14409;DHT22;7289;50.706;4.992;2023-09-30T03:33:48;11.80;99.90
14409;DHT22;7289;50.706;4.992;2023-09-30T03:36:18;11.80;99.90
14409;DHT22;7289;50.706;4.992;2023-09-30T03:38:46;11.80;99.90
14409;DHT22;7289;50.706;4.992;2023-09-30T03:41:15;11.80;99.90
14409;DHT22;7289;50.706;4.992;2023-09-30T03:43:43;11.70;99.90
14409;DHT22;7289;50.706;4.992;2023-09-30T03:46:12;11.70;99.90
14409;DHT22;7289;50.706;4.992;2023-09-30T03:48:40;11.70;99.90
14409;DHT22;7289;50.706;4.992;2023-09-30T03:51:16;11.70;99.90
14409;DHT22;7289;50.706;4.992;2023-09-30T03:53:45;11.70;99.90
14409;DHT22;7289;50.706;4.992;2023-09-30T03:56:14;11.60;99.90
14409;DHT22;7289;50.706;4.992;2023-09-30T03:58:45;11.60;99.90
14409;DHT22;7289;50.706;4.992;2023-09-30T04:01:15;11.50;99.90
14409;DHT22;7289;50.706;4.992;2023-09-30T04:03:47;11.50;99.90
14409;DHT22;7289;50.706;4.992;2023-09-30T04:06:16;11.40;99.90
14409;DHT22;7289;50.706;4.992;2023-09-30T04:08:46;11.40;99.90
14409;DHT22;7289;50.706;4.992;2023-09-30T04:11:15;11.30;99.90
14409;DHT22;7289;50.706;4.992;2023-09-30T04:13:45;11.30;99.90
14409;DHT22;7289;50.706;4.992;2023-09-30T04:16:14;11.30;99.90
14409;DHT22;7289;50.706;4.992;2023-09-30T04:18:42;11.30;99.90
14409;DHT22;7289;50.706;4.992;2023-09-30T04:21:11;11.20;99.90
14409;DHT22;7289;50.706;4.992;2023-09-30T04:23:39;11.20;99.90
14409;DHT22;7289;50.706;4.992;2023-09-30T04:26:10;11.20;99.90
14409;DHT22;7289;50.706;4.992;2023-09-30T04:28:38;11.20;99.90
14409;DHT22;7289;50.706;4.992;2023-09-30T04:31:07;11.20;99.90
14409;DHT22;7289;50.706;4.992;2023-09-30T04:33:37;11.20;99.90
14409;DHT22;7289;50.706;4.992;2023-09-30T04:36:07;11.20;99.90
14409;DHT22;7289;50.706;4.992;2023-09-30T04:38:36;11.20;99.90
14409;DHT22;7289;50.706;4.992;2023-09-30T04:41:05;11.30;99.90
14409;DHT22;7289;50.706;4.992;2023-09-30T04:43:36;11.30;99.90
14409;DHT22;7289;50.706;4.992;2023-09-30T04:46:06;11.40;99.90
14409;DHT22;7289;50.706;4.992;2023-09-30T04:48:37;11.50;99.90
14409;DHT22;7289;50.706;4.992;2023-09-30T04:51:07;11.50;99.90
14409;DHT22;7289;50.706;4.992;2023-09-30T04:53:48;11.50;99.90
14409;DHT22;7289;50.706;4.992;2023-09-30T04:56:16;11.50;99.90
14409;DHT22;7289;50.706;4.992;2023-09-30T04:58:46;11.50;99.90
14409;DHT22;7289;50.706;4.992;2023-09-30T05:01:15;11.50;99.90
14409;DHT22;7289;50.706;4.992;2023-09-30T05:03:45;11.50;99.90
14409;DHT22;7289;50.706;4.992;2023-09-30T05:06:16;11.40;99.90
14409;DHT22;7289;50.706;4.992;2023-09-30T05:08:45;11.40;99.90
14409;DHT22;7289;50.706;4.992;2023-09-30T05:11:14;11.30;99.90
14409;DHT22;7289;50.706;4.992;2023-09-30T05:13:43;11.40;99.90
14409;DHT22;7289;50.706;4.992;2023-09-30T05:16:13;11.30;99.90
14409;DHT22;7289;50.706;4.992;2023-09-30T05:18:42;11.30;99.90
14409;DHT22;7289;50.706;4.992;2023-09-30T05:21:11;11.30;99.90
14409;DHT22;7289;50.706;4.992;2023-09-30T05:23:39;11.20;99.90
14409;DHT22;7289;50.706;4.992;2023-09-30T05:26:08;11.10;99.90
14409;DHT22;7289;50.706;4.992;2023-09-30T05:28:36;11.10;99.90
14409;DHT22;7289;50.706;4.992;2023-09-30T05:31:06;11.00;99.90
14409;DHT22;7289;50.706;4.992;2023-09-30T05:33:36;11.00;99.90
14409;DHT22;7289;50.706;4.992;2023-09-30T05:36:05;10.90;99.90
14409;DHT22;7289;50.706;4.992;2023-09-30T05:38:34;10.90;99.90
14409;DHT22;7289;50.706;4.992;2023-09-30T05:41:02;10.90;99.90
14409;DHT22;7289;50.706;4.992;2023-09-30T05:43:31;10.90;99.90
14409;DHT22;7289;50.706;4.992;2023-09-30T05:45:59;10.90;99.90
14409;DHT22;7289;50.706;4.992;2023-09-30T05:48:28;10.80;99.90
14409;DHT22;7289;50.706;4.992;2023-09-30T05:50:58;10.80;99.90
14409;DHT22;7289;50.706;4.992;2023-09-30T05:53:27;10.80;99.90
14409;DHT22;7289;50.706;4.992;2023-09-30T05:55:57;10.80;99.90
14409;DHT22;7289;50.706;4.992;2023-09-30T05:58:30;10.80;99.90
14409;DHT22;7289;50.706;4.992;2023-09-30T06:00:58;10.80;99.90
14409;DHT22;7289;50.706;4.992;2023-09-30T06:03:28;10.90;99.90
14409;DHT22;7289;50.706;4.992;2023-09-30T06:05:58;10.90;99.90
14409;DHT22;7289;50.706;4.992;2023-09-30T06:08:27;11.00;99.90
14409;DHT22;7289;50.706;4.992;2023-09-30T06:10:55;11.00;99.90
14409;DHT22;7289;50.706;4.992;2023-09-30T06:13:25;11.00;99.90
14409;DHT22;7289;50.706;4.992;2023-09-30T06:15:55;11.00;99.90
14409;DHT22;7289;50.706;4.992;2023-09-30T06:18:23;11.10;99.90
14409;DHT22;7289;50.706;4.992;2023-09-30T06:20:52;11.10;99.90
14409;DHT22;7289;50.706;4.992;2023-09-30T06:23:22;11.20;99.90
14409;DHT22;7289;50.706;4.992;2023-09-30T06:25:50;11.30;99.90
14409;DHT22;7289;50.706;4.992;2023-09-30T06:28:19;11.30;99.90
14409;DHT22;7289;50.706;4.992;2023-09-30T06:30:53;11.40;99.90
14409;DHT22;7289;50.706;4.992;2023-09-30T06:33:22;11.50;99.90
14409;DHT22;7289;50.706;4.992;2023-09-30T06:35:50;11.60;99.90
14409;DHT22;7289;50.706;4.992;2023-09-30T06:38:19;11.70;99.90
14409;DHT22;7289;50.706;4.992;2023-09-30T06:40:49;11.80;99.90
14409;DHT22;7289;50.706;4.992;2023-09-30T06:43:17;11.90;99.90
14409;DHT22;7289;50.706;4.992;2023-09-30T06:45:46;12.10;99.90
14409;DHT22;7289;50.706;4.992;2023-09-30T06:48:16;12.20;99.90
14409;DHT22;7289;50.706;4.992;2023-09-30T06:50:45;12.30;99.90
14409;DHT22;7289;50.706;4.992;2023-09-30T06:53:15;12.30;99.90
14409;DHT22;7289;50.706;4.992;2023-09-30T06:55:44;12.40;99.90
14409;DHT22;7289;50.706;4.992;2023-09-30T06:58:14;12.50;99.90
14409;DHT22;7289;50.706;4.992;2023-09-30T07:00:49;12.60;99.90
14409;DHT22;7289;50.706;4.992;2023-09-30T07:03:17;12.70;99.90
14409;DHT22;7289;50.706;4.992;2023-09-30T07:05:51;12.70;99.90
14409;DHT22;7289;50.706;4.992;2023-09-30T07:08:21;12.80;99.90
14409;DHT22;7289;50.706;4.992;2023-09-30T07:10:49;13.00;99.90
14409;DHT22;7289;50.706;4.992;2023-09-30T07:13:21;13.10;99.90
14409;DHT22;7289;50.706;4.992;2023-09-30T07:15:49;13.30;99.90
14409;DHT22;7289;50.706;4.992;2023-09-30T07:18:18;13.30;99.90
14409;DHT22;7289;50.706;4.992;2023-09-30T07:20:47;13.40;99.90
14409;DHT22;7289;50.706;4.992;2023-09-30T07:23:15;13.60;99.90
14409;DHT22;7289;50.706;4.992;2023-09-30T07:25:47;13.80;99.90
14409;DHT22;7289;50.706;4.992;2023-09-30T07:28:15;14.00;99.90
14409;DHT22;7289;50.706;4.992;2023-09-30T07:30:45;14.20;99.90
14409;DHT22;7289;50.706;4.992;2023-09-30T07:33:14;14.40;99.90
14409;DHT22;7289;50.706;4.992;2023-09-30T07:35:43;14.60;99.90
14409;DHT22;7289;50.706;4.992;2023-09-30T07:38:11;14.70;99.90
14409;DHT22;7289;50.706;4.992;2023-09-30T07:40:39;14.80;99.90
14409;DHT22;7289;50.706;4.992;2023-09-30T07:43:08;14.90;99.90
14409;DHT22;7289;50.706;4.992;2023-09-30T07:45:37;15.00;99.90
14409;DHT22;7289;50.706;4.992;2023-09-30T07:48:08;15.20;99.90
14409;DHT22;7289;50.706;4.992;2023-09-30T07:50:37;15.40;99.90
14409;DHT22;7289;50.706;4.992;2023-09-30T07:53:06;15.50;99.90
14409;DHT22;7289;50.706;4.992;2023-09-30T07:55:34;15.70;99.90
14409;DHT22;7289;50.706;4.992;2023-09-30T07:58:03;15.70;99.90
14409;DHT22;7289;50.706;4.992;2023-09-30T08:00:31;15.80;99.90
14409;DHT22;7289;50.706;4.992;2023-09-30T08:03:01;15.90;99.90
14409;DHT22;7289;50.706;4.992;2023-09-30T08:05:31;15.90;99.90
14409;DHT22;7289;50.706;4.992;2023-09-30T08:08:01;16.10;99.90
14409;DHT22;7289;50.706;4.992;2023-09-30T08:10:30;16.20;99.90
14409;DHT22;7289;50.706;4.992;2023-09-30T08:13:00;16.30;99.90
14409;DHT22;7289;50.706;4.992;2023-09-30T08:15:29;16.40;99.90
14409;DHT22;7289;50.706;4.992;2023-09-30T08:17:58;16.50;99.90
14409;DHT22;7289;50.706;4.992;2023-09-30T08:20:27;16.60;99.90
14409;DHT22;7289;50.706;4.992;2023-09-30T08:22:56;16.80;99.90
14409;DHT22;7289;50.706;4.992;2023-09-30T08:25:25;16.90;99.90
14409;DHT22;7289;50.706;4.992;2023-09-30T08:27:54;16.90;99.90
14409;DHT22;7289;50.706;4.992;2023-09-30T08:30:22;16.90;99.90
14409;DHT22;7289;50.706;4.992;2023-09-30T08:32:51;16.80;99.90
14409;DHT22;7289;50.706;4.992;2023-09-30T08:35:20;16.90;99.90
14409;DHT22;7289;50.706;4.992;2023-09-30T08:37:49;17.20;99.90
14409;DHT22;7289;50.706;4.992;2023-09-30T08:40:21;17.20;99.90
14409;DHT22;7289;50.706;4.992;2023-09-30T08:42:52;17.30;99.90
14409;DHT22;7289;50.706;4.992;2023-09-30T08:45:21;17.50;99.90
14409;DHT22;7289;50.706;4.992;2023-09-30T08:47:50;17.60;99.90
14409;DHT22;7289;50.706;4.992;2023-09-30T08:50:19;17.70;99.90
14409;DHT22;7289;50.706;4.992;2023-09-30T08:52:49;17.80;99.90
14409;DHT22;7289;50.706;4.992;2023-09-30T08:55:18;17.90;99.90
14409;DHT22;7289;50.706;4.992;2023-09-30T08:57:48;18.10;99.90
14409;DHT22;7289;50.706;4.992;2023-09-30T09:00:19;18.30;99.90
14409;DHT22;7289;50.706;4.992;2023-09-30T09:02:50;18.50;99.90
14409;DHT22;7289;50.706;4.992;2023-09-30T09:05:18;18.60;99.90
14409;DHT22;7289;50.706;4.992;2023-09-30T09:07:47;18.60;99.90
14409;DHT22;7289;50.706;4.992;2023-09-30T09:10:17;18.80;99.90
14409;DHT22;7289;50.706;4.992;2023-09-30T09:12:56;18.90;99.90
14409;DHT22;7289;50.706;4.992;2023-09-30T09:15:26;19.00;99.90
14409;DHT22;7289;50.706;4.992;2023-09-30T09:17:55;19.10;99.90
14409;DHT22;7289;50.706;4.992;2023-09-30T09:20:25;19.10;99.90
14409;DHT22;7289;50.706;4.992;2023-09-30T09:22:54;19.20;99.90
14409;DHT22;7289;50.706;4.992;2023-09-30T09:25:23;19.30;99.90
14409;DHT22;7289;50.706;4.992;2023-09-30T09:27:52;19.20;99.90
14409;DHT22;7289;50.706;4.992;2023-09-30T09:30:25;19.20;99.90
14409;DHT22;7289;50.706;4.992;2023-09-30T09:33:01;19.40;99.90
14409;DHT22;7289;50.706;4.992;2023-09-30T09:35:32;19.40;99.90
14409;DHT22;7289;50.706;4.992;2023-09-30T09:38:03;19.50;99.90
14409;DHT22;7289;50.706;4.992;2023-09-30T09:40:33;19.60;99.90
14409;DHT22;7289;50.706;4.992;2023-09-30T09:43:03;19.60;99.90
14409;DHT22;7289;50.706;4.992;2023-09-30T09:45:36;19.80;99.90
14409;DHT22;7289;50.706;4.992;2023-09-30T09:48:06;19.90;99.90
14409;DHT22;7289;50.706;4.992;2023-09-30T09:50:35;19.90;99.90
14409;DHT22;7289;50.706;4.992;2023-09-30T09:53:05;19.90;99.90
14409;DHT22;7289;50.706;4.992;2023-09-30T09:55:36;19.90;99.90
14409;DHT22;7289;50.706;4.992;2023-09-30T09:58:08;19.90;99.90
14409;DHT22;7289;50.706;4.992;2023-09-30T10:00:39;19.90;99.90
14409;DHT22;7289;50.706;4.992;2023-09-30T10:03:09;20.00;99.90
14409;DHT22;7289;50.706;4.992;2023-09-30T10:05:38;20.00;99.90
14409;DHT22;7289;50.706;4.992;2023-09-30T10:08:10;19.90;99.90
14409;DHT22;7289;50.706;4.992;2023-09-30T10:10:40;19.90;99.90
14409;DHT22;7289;50.706;4.992;2023-09-30T10:13:09;20.10;99.90
14409;DHT22;7289;50.706;4.992;2023-09-30T10:15:39;20.30;99.90
14409;DHT22;7289;50.706;4.992;2023-09-30T10:18:09;20.40;99.70
14409;DHT22;7289;50.706;4.992;2023-09-30T10:20:43;20.50;99.70
14409;DHT22;7289;50.706;4.992;2023-09-30T10:23:23;20.60;99.60
14409;DHT22;7289;50.706;4.992;2023-09-30T10:25:54;20.60;99.30
14409;DHT22;7289;50.706;4.992;2023-09-30T10:28:38;20.60;99.30
14409;DHT22;7289;50.706;4.992;2023-09-30T10:31:14;20.60;99.30
14409;DHT22;7289;50.706;4.992;2023-09-30T10:34:21;20.40;99.20
14409;DHT22;7289;50.706;4.992;2023-09-30T10:36:49;20.50;99.00
14409;DHT22;7289;50.706;4.992;2023-09-30T10:39:52;20.60;98.80
14409;DHT22;7289;50.706;4.992;2023-09-30T10:42:45;20.80;98.90
14409;DHT22;7289;50.706;4.992;2023-09-30T10:45:42;20.90;98.60
14409;DHT22;7289;50.706;4.992;2023-09-30T10:48:38;21.10;97.50
14409;DHT22;7289;50.706;4.992;2023-09-30T10:51:13;21.10;97.70
14409;DHT22;7289;50.706;4.992;2023-09-30T10:53:44;20.90;97.80
14409;DHT22;7289;50.706;4.992;2023-09-30T10:56:14;20.80;98.10
14409;DHT22;7289;50.706;4.992;2023-09-30T10:58:45;20.60;98.80
14409;DHT22;7289;50.706;4.992;2023-09-30T11:01:14;20.40;98.30
14409;DHT22;7289;50.706;4.992;2023-09-30T11:03:45;20.40;98.40
14409;DHT22;7289;50.706;4.992;2023-09-30T11:06:16;20.40;98.90
14409;DHT22;7289;50.706;4.992;2023-09-30T11:08:50;20.60;99.50
14409;DHT22;7289;50.706;4.992;2023-09-30T11:11:19;20.70;99.00
14409;DHT22;7289;50.706;4.992;2023-09-30T11:13:48;20.90;99.10
14409;DHT22;7289;50.706;4.992;2023-09-30T11:16:16;20.90;98.00
14409;DHT22;7289;50.706;4.992;2023-09-30T11:18:46;20.90;97.70
14409;DHT22;7289;50.706;4.992;2023-09-30T11:21:22;20.80;98.00
14409;DHT22;7289;50.706;4.992;2023-09-30T11:23:52;20.90;98.30
14409;DHT22;7289;50.706;4.992;2023-09-30T11:26:29;20.80;97.50
14409;DHT22;7289;50.706;4.992;2023-09-30T11:29:05;20.90;97.10
14409;DHT22;7289;50.706;4.992;2023-09-30T11:31:37;20.90;97.10
14409;DHT22;7289;50.706;4.992;2023-09-30T11:34:07;20.90;96.80
14409;DHT22;7289;50.706;4.992;2023-09-30T11:36:38;20.80;98.00
14409;DHT22;7289;50.706;4.992;2023-09-30T11:39:06;20.90;98.10
14409;DHT22;7289;50.706;4.992;2023-09-30T11:41:37;20.90;97.40
14409;DHT22;7289;50.706;4.992;2023-09-30T11:44:07;21.00;97.10
14409;DHT22;7289;50.706;4.992;2023-09-30T11:46:48;21.10;97.60
14409;DHT22;7289;50.706;4.992;2023-09-30T11:49:29;21.10;97.00
14409;DHT22;7289;50.706;4.992;2023-09-30T11:51:59;21.20;97.00
14409;DHT22;7289;50.706;4.992;2023-09-30T11:54:29;21.30;96.60
14409;DHT22;7289;50.706;4.992;2023-09-30T11:57:00;21.40;96.80
14409;DHT22;7289;50.706;4.992;2023-09-30T11:59:29;21.50;97.10
14409;DHT22;7289;50.706;4.992;2023-09-30T12:01:57;21.60;97.40
14409;DHT22;7289;50.706;4.992;2023-09-30T12:04:43;21.60;96.70
14409;DHT22;7289;50.706;4.992;2023-09-30T12:07:12;21.40;96.90
14409;DHT22;7289;50.706;4.992;2023-09-30T12:09:41;21.40;95.90
14409;DHT22;7289;50.706;4.992;2023-09-30T12:12:10;21.30;95.90
14409;DHT22;7289;50.706;4.992;2023-09-30T12:14:41;21.20;96.20
14409;DHT22;7289;50.706;4.992;2023-09-30T12:17:09;21.20;96.40
14409;DHT22;7289;50.706;4.992;2023-09-30T12:19:39;21.30;96.60
14409;DHT22;7289;50.706;4.992;2023-09-30T12:22:11;21.30;96.30
14409;DHT22;7289;50.706;4.992;2023-09-30T12:24:39;21.40;96.30
14409;DHT22;7289;50.706;4.992;2023-09-30T12:27:08;21.20;95.80
14409;DHT22;7289;50.706;4.992;2023-09-30T12:29:36;21.10;95.90
14409;DHT22;7289;50.706;4.992;2023-09-30T12:32:06;21.20;95.40
14409;DHT22;7289;50.706;4.992;2023-09-30T12:34:35;21.20;96.20
14409;DHT22;7289;50.706;4.992;2023-09-30T12:37:04;21.10;97.00
14409;DHT22;7289;50.706;4.992;2023-09-30T12:39:33;21.20;96.50
14409;DHT22;7289;50.706;4.992;2023-09-30T12:42:04;21.30;96.30
14409;DHT22;7289;50.706;4.992;2023-09-30T12:44:36;21.50;95.50
14409;DHT22;7289;50.706;4.992;2023-09-30T12:47:05;21.50;95.00
14409;DHT22;7289;50.706;4.992;2023-09-30T12:49:33;21.50;95.70
14409;DHT22;7289;50.706;4.992;2023-09-30T12:52:02;21.70;95.60
14409;DHT22;7289;50.706;4.992;2023-09-30T12:54:33;21.90;96.00
14409;DHT22;7289;50.706;4.992;2023-09-30T12:57:02;22.00;94.90
14409;DHT22;7289;50.706;4.992;2023-09-30T12:59:30;22.20;94.30
14409;DHT22;7289;50.706;4.992;2023-09-30T13:02:01;22.40;94.20
14409;DHT22;7289;50.706;4.992;2023-09-30T13:04:30;22.50;94.40
14409;DHT22;7289;50.706;4.992;2023-09-30T13:06:58;22.40;94.20
14409;DHT22;7289;50.706;4.992;2023-09-30T13:09:27;22.40;94.70
14409;DHT22;7289;50.706;4.992;2023-09-30T13:11:57;22.40;94.50
14409;DHT22;7289;50.706;4.992;2023-09-30T13:14:27;22.40;93.80
14409;DHT22;7289;50.706;4.992;2023-09-30T13:16:56;22.40;93.90
14409;DHT22;7289;50.706;4.992;2023-09-30T13:19:24;22.50;93.30
14409;DHT22;7289;50.706;4.992;2023-09-30T13:21:53;22.50;93.10
14409;DHT22;7289;50.706;4.992;2023-09-30T13:24:22;22.50;93.40
14409;DHT22;7289;50.706;4.992;2023-09-30T13:26:51;22.50;93.20
14409;DHT22;7289;50.706;4.992;2023-09-30T13:29:21;22.30;92.60
14409;DHT22;7289;50.706;4.992;2023-09-30T13:31:50;22.40;92.90
14409;DHT22;7289;50.706;4.992;2023-09-30T13:34:19;22.50;92.70
14409;DHT22;7289;50.706;4.992;2023-09-30T13:36:47;22.70;93.20
14409;DHT22;7289;50.706;4.992;2023-09-30T13:39:16;22.70;92.30
14409;DHT22;7289;50.706;4.992;2023-09-30T13:41:44;22.80;92.10
14409;DHT22;7289;50.706;4.992;2023-09-30T13:44:14;22.50;92.30
14409;DHT22;7289;50.706;4.992;2023-09-30T13:46:44;22.20;92.70
14409;DHT22;7289;50.706;4.992;2023-09-30T13:49:13;22.40;92.40
14409;DHT22;7289;50.706;4.992;2023-09-30T13:51:41;22.50;91.50
14409;DHT22;7289;50.706;4.992;2023-09-30T13:54:10;22.70;91.80
14409;DHT22;7289;50.706;4.992;2023-09-30T13:56:38;22.80;91.90
14409;DHT22;7289;50.706;4.992;2023-09-30T13:59:07;22.90;92.40
14409;DHT22;7289;50.706;4.992;2023-09-30T14:01:37;23.00;92.10
14409;DHT22;7289;50.706;4.992;2023-09-30T14:04:10;23.10;92.10
14409;DHT22;7289;50.706;4.992;2023-09-30T14:06:39;23.00;91.10
14409;DHT22;7289;50.706;4.992;2023-09-30T14:09:08;23.00;91.40
14409;DHT22;7289;50.706;4.992;2023-09-30T14:12:01;23.10;91.50
14409;DHT22;7289;50.706;4.992;2023-09-30T14:14:31;23.40;90.80
14409;DHT22;7289;50.706;4.992;2023-09-30T14:17:01;23.40;90.00
14409;DHT22;7289;50.706;4.992;2023-09-30T14:19:36;23.40;88.00
14409;DHT22;7289;50.706;4.992;2023-09-30T14:22:05;23.30;87.10
14409;DHT22;7289;50.706;4.992;2023-09-30T14:24:35;23.30;89.30
14409;DHT22;7289;50.706;4.992;2023-09-30T14:27:04;23.30;87.90
14409;DHT22;7289;50.706;4.992;2023-09-30T14:29:33;23.30;86.10
14409;DHT22;7289;50.706;4.992;2023-09-30T14:32:01;23.20;87.00
14409;DHT22;7289;50.706;4.992;2023-09-30T14:34:30;23.20;87.80
14409;DHT22;7289;50.706;4.992;2023-09-30T14:37:00;23.20;86.10
14409;DHT22;7289;50.706;4.992;2023-09-30T14:39:28;23.00;86.30
14409;DHT22;7289;50.706;4.992;2023-09-30T14:41:56;23.10;87.20
14409;DHT22;7289;50.706;4.992;2023-09-30T14:44:25;23.00;87.30
14409;DHT22;7289;50.706;4.992;2023-09-30T14:46:53;23.00;86.60
14409;DHT22;7289;50.706;4.992;2023-09-30T14:49:23;23.00;86.60
14409;DHT22;7289;50.706;4.992;2023-09-30T14:51:51;23.10;87.70
14409;DHT22;7289;50.706;4.992;2023-09-30T14:54:21;23.10;87.40
14409;DHT22;7289;50.706;4.992;2023-09-30T14:56:50;23.10;88.10
14409;DHT22;7289;50.706;4.992;2023-09-30T14:59:18;23.00;86.70
14409;DHT22;7289;50.706;4.992;2023-09-30T15:01:46;22.90;87.90
14409;DHT22;7289;50.706;4.992;2023-09-30T15:04:16;22.80;88.30
14409;DHT22;7289;50.706;4.992;2023-09-30T15:06:45;22.80;88.30
14409;DHT22;7289;50.706;4.992;2023-09-30T15:09:14;22.60;86.90
14409;DHT22;7289;50.706;4.992;2023-09-30T15:11:43;22.50;87.20
14409;DHT22;7289;50.706;4.992;2023-09-30T15:14:12;22.40;87.70
14409;DHT22;7289;50.706;4.992;2023-09-30T15:16:40;22.40;87.00
14409;DHT22;7289;50.706;4.992;2023-09-30T15:19:09;22.40;87.60
14409;DHT22;7289;50.706;4.992;2023-09-30T15:21:38;22.30;88.40
14409;DHT22;7289;50.706;4.992;2023-09-30T15:24:07;22.20;87.30
14409;DHT22;7289;50.706;4.992;2023-09-30T15:26:35;22.00;87.60
14409;DHT22;7289;50.706;4.992;2023-09-30T15:29:05;21.80;87.90
14409;DHT22;7289;50.706;4.992;2023-09-30T15:31:34;21.80;89.40
14409;DHT22;7289;50.706;4.992;2023-09-30T15:34:03;21.60;88.60
14409;DHT22;7289;50.706;4.992;2023-09-30T15:36:33;21.50;90.10
14409;DHT22;7289;50.706;4.992;2023-09-30T15:39:01;21.50;89.60
14409;DHT22;7289;50.706;4.992;2023-09-30T15:41:29;21.50;90.30
14409;DHT22;7289;50.706;4.992;2023-09-30T15:43:58;21.40;88.90
14409;DHT22;7289;50.706;4.992;2023-09-30T15:46:28;21.30;87.60
14409;DHT22;7289;50.706;4.992;2023-09-30T15:48:57;21.20;86.40
14409;DHT22;7289;50.706;4.992;2023-09-30T15:51:25;21.20;86.70
14409;DHT22;7289;50.706;4.992;2023-09-30T15:53:54;21.10;86.80
14409;DHT22;7289;50.706;4.992;2023-09-30T15:56:23;21.10;87.60
14409;DHT22;7289;50.706;4.992;2023-09-30T15:58:52;21.10;87.80
14409;DHT22;7289;50.706;4.992;2023-09-30T16:01:20;21.00;89.60
14409;DHT22;7289;50.706;4.992;2023-09-30T16:03:50;20.90;90.70
14409;DHT22;7289;50.706;4.992;2023-09-30T16:06:20;20.80;91.60
14409;DHT22;7289;50.706;4.992;2023-09-30T16:08:49;20.80;92.00
14409;DHT22;7289;50.706;4.992;2023-09-30T16:11:22;20.70;92.80
14409;DHT22;7289;50.706;4.992;2023-09-30T16:13:51;20.60;92.80
14409;DHT22;7289;50.706;4.992;2023-09-30T16:16:20;20.50;92.90
14409;DHT22;7289;50.706;4.992;2023-09-30T16:18:50;20.40;93.90
14409;DHT22;7289;50.706;4.992;2023-09-30T16:21:18;20.20;94.20
14409;DHT22;7289;50.706;4.992;2023-09-30T16:23:46;20.20;94.50